sensor_id;sensor_type;location;lat;lon;timestamp;pressure;altitude;pressure_sealevel;temperature;humidity
68141;BME280;54941;52.220;104.306;2023-01-29T00:00:02;96251.41;;;-15.00;80.32
68141;BME280;54941;52.220;104.306;2023-01-29T00:02:32;96248.69;;;-15.16;80.06
68141;BME280;54941;52.220;104.306;2023-01-29T00:04:58;96245.69;;;-15.25;80.47
68141;BME280;54941;52.220;104.306;2023-01-29T00:07:25;96248.88;;;-15.45;80.62
68141;BME280;54941;52.220;104.306;2023-01-29T00:09:52;96241.69;;;-15.76;80.86
68141;BME280;54941;52.220;104.306;2023-01-29T00:12:18;96237.31;;;-15.68;81.31
68141;BME280;54941;52.220;104.306;2023-01-29T00:14:44;96234.44;;;-15.56;81.07
68141;BME280;54941;52.220;104.306;2023-01-29T00:17:11;96233.63;;;-15.33;80.95
68141;BME280;54941;52.220;104.306;2023-01-29T00:19:39;96231.44;;;-15.17;81.95
68141;BME280;54941;52.220;104.306;2023-01-29T00:22:05;96237.06;;;-14.91;82.00
68141;BME280;54941;52.220;104.306;2023-01-29T00:24:31;96240.22;;;-14.87;82.20
68141;BME280;54941;52.220;104.306;2023-01-29T00:26:58;96237.91;;;-14.92;81.92
68141;BME280;54941;52.220;104.306;2023-01-29T00:29:24;96237.44;;;-15.01;82.09
68141;BME280;54941;52.220;104.306;2023-01-29T00:31:51;96243.50;;;-15.33;80.30
68141;BME280;54941;52.220;104.306;2023-01-29T00:34:17;96243.72;;;-15.39;80.97
68141;BME280;54941;52.220;104.306;2023-01-29T00:36:45;96235.72;;;-15.46;81.08
68141;BME280;54941;52.220;104.306;2023-01-29T00:39:11;96237.31;;;-15.21;81.47
68141;BME280;54941;52.220;104.306;2023-01-29T00:41:38;96245.28;;;-15.13;81.02
68141;BME280;54941;52.220;104.306;2023-01-29T00:44:05;96233.63;;;-14.87;81.81
68141;BME280;54941;52.220;104.306;2023-01-29T00:46:32;96237.91;;;-14.92;81.25
68141;BME280;54941;52.220;104.306;2023-01-29T00:48:58;96241.97;;;-14.89;80.25
68141;BME280;54941;52.220;104.306;2023-01-29T00:51:25;96251.78;;;-14.88;81.29
68141;BME280;54941;52.220;104.306;2023-01-29T00:53:52;96263.31;;;-14.65;81.78
68141;BME280;54941;52.220;104.306;2023-01-29T00:56:19;96267.69;;;-14.71;81.07
68141;BME280;54941;52.220;104.306;2023-01-29T00:58:45;96264.41;;;-14.95;80.41
68141;BME280;54941;52.220;104.306;2023-01-29T01:01:12;96258.75;;;-14.99;80.86
68141;BME280;54941;52.220;104.306;2023-01-29T01:03:38;96264.16;;;-15.36;80.47
68141;BME280;54941;52.220;104.306;2023-01-29T01:06:06;96262.81;;;-15.19;80.56
68141;BME280;54941;52.220;104.306;2023-01-29T01:08:33;96257.25;;;-15.03;80.04
68141;BME280;54941;52.220;104.306;2023-01-29T01:11:03;96263.25;;;-15.33;79.60
68141;BME280;54941;52.220;104.306;2023-01-29T01:13:31;96254.16;;;-15.31;79.30
68141;BME280;54941;52.220;104.306;2023-01-29T01:15:57;96264.25;;;-14.91;79.64
68141;BME280;54941;52.220;104.306;2023-01-29T01:18:24;96263.34;;;-14.66;79.24
68141;BME280;54941;52.220;104.306;2023-01-29T01:20:56;96267.41;;;-14.42;78.49
68141;BME280;54941;52.220;104.306;2023-01-29T01:23:23;96266.03;;;-14.07;77.63
68141;BME280;54941;52.220;104.306;2023-01-29T01:25:49;96254.84;;;-13.96;76.97
68141;BME280;54941;52.220;104.306;2023-01-29T01:28:17;96259.09;;;-14.19;77.05
68141;BME280;54941;52.220;104.306;2023-01-29T01:30:44;96260.50;;;-14.14;77.65
68141;BME280;54941;52.220;104.306;2023-01-29T01:33:10;96265.59;;;-14.17;78.65
68141;BME280;54941;52.220;104.306;2023-01-29T01:35:37;96271.66;;;-14.04;78.34
68141;BME280;54941;52.220;104.306;2023-01-29T01:38:04;96279.78;;;-13.78;78.21
68141;BME280;54941;52.220;104.306;2023-01-29T01:40:30;96265.47;;;-13.52;78.71
68141;BME280;54941;52.220;104.306;2023-01-29T01:42:58;96272.06;;;-13.52;78.21
68141;BME280;54941;52.220;104.306;2023-01-29T01:45:29;96272.66;;;-13.46;77.91
68141;BME280;54941;52.220;104.306;2023-01-29T01:47:59;96263.19;;;-13.56;78.58
68141;BME280;54941;52.220;104.306;2023-01-29T01:50:30;96260.59;;;-13.53;78.92
68141;BME280;54941;52.220;104.306;2023-01-29T01:53:04;96269.97;;;-13.21;79.07
68141;BME280;54941;52.220;104.306;2023-01-29T01:55:34;96263.97;;;-13.15;77.57
68141;BME280;54941;52.220;104.306;2023-01-29T01:58:07;96248.28;;;-13.16;77.25
68141;BME280;54941;52.220;104.306;2023-01-29T02:00:36;96248.94;;;-13.12;77.21
68141;BME280;54941;52.220;104.306;2023-01-29T02:03:04;96253.75;;;-13.28;77.12
68141;BME280;54941;52.220;104.306;2023-01-29T02:05:32;96253.88;;;-13.51;77.68
68141;BME280;54941;52.220;104.306;2023-01-29T02:07:59;96260.75;;;-13.38;78.41
68141;BME280;54941;52.220;104.306;2023-01-29T02:10:26;96261.13;;;-13.26;78.06
68141;BME280;54941;52.220;104.306;2023-01-29T02:12:55;96253.34;;;-13.19;78.27
68141;BME280;54941;52.220;104.306;2023-01-29T02:15:22;96260.88;;;-13.41;78.08
68141;BME280;54941;52.220;104.306;2023-01-29T02:17:50;96256.13;;;-13.08;78.63
68141;BME280;54941;52.220;104.306;2023-01-29T02:20:22;96259.13;;;-12.81;78.80
68141;BME280;54941;52.220;104.306;2023-01-29T02:23:23;96262.84;;;-11.82;76.14
68141;BME280;54941;52.220;104.306;2023-01-29T02:26:12;96256.34;;;-10.38;72.25
68141;BME280;54941;52.220;104.306;2023-01-29T02:28:45;96258.50;;;-9.86;66.83
68141;BME280;54941;52.220;104.306;2023-01-29T02:31:18;96253.31;;;-9.38;65.83
68141;BME280;54941;52.220;104.306;2023-01-29T02:33:55;96252.31;;;-9.79;65.77
68141;BME280;54941;52.220;104.306;2023-01-29T02:36:31;96238.63;;;-10.47;66.78
68141;BME280;54941;52.220;104.306;2023-01-29T02:39:05;96249.13;;;-10.26;67.26
68141;BME280;54941;52.220;104.306;2023-01-29T02:41:40;96257.06;;;-9.90;66.38
68141;BME280;54941;52.220;104.306;2023-01-29T02:44:16;96252.00;;;-9.73;65.53
68141;BME280;54941;52.220;104.306;2023-01-29T02:46:49;96249.66;;;-8.61;63.38
68141;BME280;54941;52.220;104.306;2023-01-29T02:49:22;96248.78;;;-8.07;61.84
68141;BME280;54941;52.220;104.306;2023-01-29T02:51:57;96242.41;;;-7.46;59.85
68141;BME280;54941;52.220;104.306;2023-01-29T02:54:30;96240.63;;;-7.96;61.25
68141;BME280;54941;52.220;104.306;2023-01-29T02:57:07;96239.13;;;-7.99;60.99
68141;BME280;54941;52.220;104.306;2023-01-29T02:59:39;96234.75;;;-7.43;60.18
68141;BME280;54941;52.220;104.306;2023-01-29T03:02:09;96236.63;;;-7.47;58.41
68141;BME280;54941;52.220;104.306;2023-01-29T03:04:41;96232.19;;;-6.67;58.09
68141;BME280;54941;52.220;104.306;2023-01-29T03:07:12;96240.63;;;-6.94;57.40
68141;BME280;54941;52.220;104.306;2023-01-29T03:09:48;96231.81;;;-6.74;56.76
68141;BME280;54941;52.220;104.306;2023-01-29T03:12:21;96222.78;;;-6.04;55.76
68141;BME280;54941;52.220;104.306;2023-01-29T03:14:51;96217.13;;;-5.37;53.66
68141;BME280;54941;52.220;104.306;2023-01-29T03:17:17;96216.63;;;-5.08;52.88
68141;BME280;54941;52.220;104.306;2023-01-29T03:19:46;96225.78;;;-4.96;51.87
68141;BME280;54941;52.220;104.306;2023-01-29T03:22:14;96223.59;;;-4.78;51.88
68141;BME280;54941;52.220;104.306;2023-01-29T03:24:45;96215.00;;;-4.86;51.99
68141;BME280;54941;52.220;104.306;2023-01-29T03:27:17;96218.63;;;-5.24;53.02
68141;BME280;54941;52.220;104.306;2023-01-29T03:29:48;96218.91;;;-4.82;51.59
68141;BME280;54941;52.220;104.306;2023-01-29T03:32:17;96210.47;;;-4.93;53.02
68141;BME280;54941;52.220;104.306;2023-01-29T03:34:48;96222.13;;;-5.83;55.28
68141;BME280;54941;52.220;104.306;2023-01-29T03:37:17;96225.91;;;-5.43;54.23
68141;BME280;54941;52.220;104.306;2023-01-29T03:39:46;96225.09;;;-5.55;55.30
68141;BME280;54941;52.220;104.306;2023-01-29T03:42:19;96219.00;;;-5.28;54.60
68141;BME280;54941;52.220;104.306;2023-01-29T03:44:53;96217.53;;;-4.86;54.58
68141;BME280;54941;52.220;104.306;2023-01-29T03:47:29;96231.13;;;-5.11;54.74
68141;BME280;54941;52.220;104.306;2023-01-29T03:49:58;96228.16;;;-5.62;56.13
68141;BME280;54941;52.220;104.306;2023-01-29T03:52:34;96218.28;;;-5.42;57.06
68141;BME280;54941;52.220;104.306;2023-01-29T03:55:05;96221.13;;;-6.16;59.14
68141;BME280;54941;52.220;104.306;2023-01-29T03:57:36;96213.63;;;-6.05;59.60
68141;BME280;54941;52.220;104.306;2023-01-29T04:00:09;96213.81;;;-5.95;59.96
68141;BME280;54941;52.220;104.306;2023-01-29T04:02:46;96218.06;;;-6.08;60.58
68141;BME280;54941;52.220;104.306;2023-01-29T04:05:17;96210.72;;;-6.22;60.91
68141;BME280;54941;52.220;104.306;2023-01-29T04:07:46;96211.03;;;-4.89;58.91
68141;BME280;54941;52.220;104.306;2023-01-29T04:10:19;96205.53;;;-4.83;58.08
68141;BME280;54941;52.220;104.306;2023-01-29T04:12:49;96207.22;;;-4.50;57.25
68141;BME280;54941;52.220;104.306;2023-01-29T04:15:16;96205.72;;;-3.99;55.61
68141;BME280;54941;52.220;104.306;2023-01-29T04:17:49;96207.38;;;-4.63;56.60
68141;BME280;54941;52.220;104.306;2023-01-29T04:20:16;96201.75;;;-5.22;57.82
68141;BME280;54941;52.220;104.306;2023-01-29T04:22:45;96196.00;;;-5.46;59.75
68141;BME280;54941;52.220;104.306;2023-01-29T04:25:14;96198.47;;;-5.00;59.47
68141;BME280;54941;52.220;104.306;2023-01-29T04:27:47;96196.59;;;-5.31;60.13
68141;BME280;54941;52.220;104.306;2023-01-29T04:30:26;96188.06;;;-5.86;62.05
68141;BME280;54941;52.220;104.306;2023-01-29T04:33:04;96189.09;;;-5.77;63.12
68141;BME280;54941;52.220;104.306;2023-01-29T04:35:35;96186.09;;;-5.48;62.00
68141;BME280;54941;52.220;104.306;2023-01-29T04:38:11;96183.16;;;-5.87;63.56
68141;BME280;54941;52.220;104.306;2023-01-29T04:40:48;96177.63;;;-5.47;62.83
68141;BME280;54941;52.220;104.306;2023-01-29T04:43:20;96178.09;;;-5.53;62.46
68141;BME280;54941;52.220;104.306;2023-01-29T04:46:00;96170.34;;;-4.94;61.43
68141;BME280;54941;52.220;104.306;2023-01-29T04:48:40;96165.63;;;-4.54;60.09
68141;BME280;54941;52.220;104.306;2023-01-29T04:51:12;96170.59;;;-4.97;59.42
68141;BME280;54941;52.220;104.306;2023-01-29T04:53:45;96163.31;;;-5.68;62.01
68141;BME280;54941;52.220;104.306;2023-01-29T04:56:18;96162.47;;;-4.89;61.56
68141;BME280;54941;52.220;104.306;2023-01-29T04:58:50;96163.28;;;-5.45;63.37
68141;BME280;54941;52.220;104.306;2023-01-29T05:01:19;96156.09;;;-5.05;61.05
68141;BME280;54941;52.220;104.306;2023-01-29T05:03:49;96157.56;;;-5.02;61.64
68141;BME280;54941;52.220;104.306;2023-01-29T05:06:19;96145.63;;;-4.45;59.58
68141;BME280;54941;52.220;104.306;2023-01-29T05:08:46;96147.75;;;-5.05;61.80
68141;BME280;54941;52.220;104.306;2023-01-29T05:11:15;96133.53;;;-4.73;62.43
68141;BME280;54941;52.220;104.306;2023-01-29T05:13:43;96131.13;;;-4.20;61.92
68141;BME280;54941;52.220;104.306;2023-01-29T05:16:15;96120.78;;;-3.65;60.44
68141;BME280;54941;52.220;104.306;2023-01-29T05:18:44;96118.81;;;-3.61;60.23
68141;BME280;54941;52.220;104.306;2023-01-29T05:21:13;96126.38;;;-3.31;58.98
68141;BME280;54941;52.220;104.306;2023-01-29T05:23:39;96124.94;;;-3.03;58.88
68141;BME280;54941;52.220;104.306;2023-01-29T05:26:05;96128.38;;;-2.95;58.83
68141;BME280;54941;52.220;104.306;2023-01-29T05:28:32;96127.22;;;-3.51;59.19
68141;BME280;54941;52.220;104.306;2023-01-29T05:30:58;96126.47;;;-3.42;59.91
68141;BME280;54941;52.220;104.306;2023-01-29T05:33:26;96120.66;;;-3.63;60.99
68141;BME280;54941;52.220;104.306;2023-01-29T05:35:53;96119.00;;;-3.53;60.11
68141;BME280;54941;52.220;104.306;2023-01-29T05:38:21;96106.06;;;-2.99;59.22
68141;BME280;54941;52.220;104.306;2023-01-29T05:40:48;96104.41;;;-2.89;58.77
68141;BME280;54941;52.220;104.306;2023-01-29T05:43:16;96094.63;;;-3.43;60.34
68141;BME280;54941;52.220;104.306;2023-01-29T05:45:50;96103.22;;;-3.55;60.07
68141;BME280;54941;52.220;104.306;2023-01-29T05:48:20;96102.25;;;-2.93;59.29
68141;BME280;54941;52.220;104.306;2023-01-29T05:50:46;96099.06;;;-2.96;58.80
68141;BME280;54941;52.220;104.306;2023-01-29T05:53:13;96090.84;;;-2.98;58.57
68141;BME280;54941;52.220;104.306;2023-01-29T05:55:43;96087.41;;;-2.97;58.52
68141;BME280;54941;52.220;104.306;2023-01-29T05:58:09;96088.88;;;-2.84;58.39
68141;BME280;54941;52.220;104.306;2023-01-29T06:00:39;96090.47;;;-2.93;58.92
68141;BME280;54941;52.220;104.306;2023-01-29T06:03:05;96091.09;;;-3.01;58.28
68141;BME280;54941;52.220;104.306;2023-01-29T06:05:36;96078.13;;;-2.77;58.17
68141;BME280;54941;52.220;104.306;2023-01-29T06:08:03;96081.72;;;-2.89;58.83
68141;BME280;54941;52.220;104.306;2023-01-29T06:10:29;96078.06;;;-3.06;59.65
68141;BME280;54941;52.220;104.306;2023-01-29T06:12:57;96082.38;;;-2.87;59.19
68141;BME280;54941;52.220;104.306;2023-01-29T06:15:23;96082.31;;;-3.06;60.41
68141;BME280;54941;52.220;104.306;2023-01-29T06:17:51;96075.00;;;-3.09;60.07
68141;BME280;54941;52.220;104.306;2023-01-29T06:20:18;96071.31;;;-2.96;58.98
68141;BME280;54941;52.220;104.306;2023-01-29T06:22:44;96067.09;;;-2.95;60.29
68141;BME280;54941;52.220;104.306;2023-01-29T06:25:11;96064.66;;;-3.16;60.30
68141;BME280;54941;52.220;104.306;2023-01-29T06:27:37;96058.19;;;-2.99;59.30
68141;BME280;54941;52.220;104.306;2023-01-29T06:30:06;96050.81;;;-2.72;58.18
68141;BME280;54941;52.220;104.306;2023-01-29T06:32:33;96049.75;;;-2.69;58.07
68141;BME280;54941;52.220;104.306;2023-01-29T06:34:59;96044.41;;;-3.05;59.46
68141;BME280;54941;52.220;104.306;2023-01-29T06:37:33;96040.16;;;-2.95;60.27
68141;BME280;54941;52.220;104.306;2023-01-29T06:39:59;96043.38;;;-2.92;59.80
68141;BME280;54941;52.220;104.306;2023-01-29T06:42:26;96038.06;;;-2.32;57.94
68141;BME280;54941;52.220;104.306;2023-01-29T06:44:53;96034.78;;;-2.52;57.72
68141;BME280;54941;52.220;104.306;2023-01-29T06:47:21;96025.88;;;-2.46;57.22
68141;BME280;54941;52.220;104.306;2023-01-29T06:49:47;96034.25;;;-2.55;56.99
68141;BME280;54941;52.220;104.306;2023-01-29T06:52:14;96031.06;;;-2.38;57.06
68141;BME280;54941;52.220;104.306;2023-01-29T06:54:40;96033.69;;;-2.39;56.30
68141;BME280;54941;52.220;104.306;2023-01-29T06:57:07;96032.91;;;-2.69;57.81
68141;BME280;54941;52.220;104.306;2023-01-29T06:59:33;96034.47;;;-2.87;57.70
68141;BME280;54941;52.220;104.306;2023-01-29T07:01:59;96031.59;;;-2.63;58.05
68141;BME280;54941;52.220;104.306;2023-01-29T07:04:27;96033.19;;;-2.53;57.86
68141;BME280;54941;52.220;104.306;2023-01-29T07:06:54;96035.03;;;-2.64;57.52
68141;BME280;54941;52.220;104.306;2023-01-29T07:09:20;96036.22;;;-2.39;58.07
68141;BME280;54941;52.220;104.306;2023-01-29T07:11:47;96026.94;;;-2.39;57.84
68141;BME280;54941;52.220;104.306;2023-01-29T07:14:13;96033.56;;;-2.38;57.30
68141;BME280;54941;52.220;104.306;2023-01-29T07:16:39;96026.38;;;-2.23;57.40
68141;BME280;54941;52.220;104.306;2023-01-29T07:19:06;96025.72;;;-2.16;56.80
68141;BME280;54941;52.220;104.306;2023-01-29T07:21:34;96023.84;;;-2.14;56.55
68141;BME280;54941;52.220;104.306;2023-01-29T07:24:00;96025.97;;;-2.28;57.23
68141;BME280;54941;52.220;104.306;2023-01-29T07:26:27;96028.06;;;-1.95;56.77
68141;BME280;54941;52.220;104.306;2023-01-29T07:28:53;96027.72;;;-1.73;56.67
68141;BME280;54941;52.220;104.306;2023-01-29T07:31:19;96028.88;;;-2.14;57.31
68141;BME280;54941;52.220;104.306;2023-01-29T07:33:46;96025.16;;;-2.10;56.55
68141;BME280;54941;52.220;104.306;2023-01-29T07:36:13;96021.44;;;-1.96;56.95
68141;BME280;54941;52.220;104.306;2023-01-29T07:38:41;96020.38;;;-2.13;56.29
68141;BME280;54941;52.220;104.306;2023-01-29T07:41:09;96015.34;;;-2.13;56.94
68141;BME280;54941;52.220;104.306;2023-01-29T07:43:36;96015.00;;;-2.56;57.76
68141;BME280;54941;52.220;104.306;2023-01-29T07:46:03;96016.84;;;-2.39;58.00
68141;BME280;54941;52.220;104.306;2023-01-29T07:48:30;96017.38;;;-2.26;57.22
68141;BME280;54941;52.220;104.306;2023-01-29T07:50:56;96020.31;;;-2.59;57.69
68141;BME280;54941;52.220;104.306;2023-01-29T07:53:23;96014.44;;;-2.31;57.33
68141;BME280;54941;52.220;104.306;2023-01-29T07:55:51;96021.31;;;-2.04;56.79
68141;BME280;54941;52.220;104.306;2023-01-29T07:58:18;96027.84;;;-2.30;57.18
68141;BME280;54941;52.220;104.306;2023-01-29T08:00:44;96022.69;;;-2.38;58.25
68141;BME280;54941;52.220;104.306;2023-01-29T08:03:13;96019.09;;;-2.46;59.23
68141;BME280;54941;52.220;104.306;2023-01-29T08:05:40;96010.47;;;-2.43;57.84
68141;BME280;54941;52.220;104.306;2023-01-29T08:08:06;96009.25;;;-2.39;57.43
68141;BME280;54941;52.220;104.306;2023-01-29T08:10:33;96010.56;;;-2.16;57.51
68141;BME280;54941;52.220;104.306;2023-01-29T08:13:02;96005.28;;;-2.41;58.14
68141;BME280;54941;52.220;104.306;2023-01-29T08:15:28;96002.91;;;-2.53;58.06
68141;BME280;54941;52.220;104.306;2023-01-29T08:17:55;96002.47;;;-2.29;57.54
68141;BME280;54941;52.220;104.306;2023-01-29T08:20:22;95995.31;;;-2.43;57.68
68141;BME280;54941;52.220;104.306;2023-01-29T08:22:48;95996.13;;;-2.33;57.68
68141;BME280;54941;52.220;104.306;2023-01-29T08:25:15;95997.31;;;-2.47;57.99
68141;BME280;54941;52.220;104.306;2023-01-29T08:27:42;96000.75;;;-3.15;61.32
68141;BME280;54941;52.220;104.306;2023-01-29T08:30:11;96000.38;;;-3.01;62.16
68141;BME280;54941;52.220;104.306;2023-01-29T08:32:37;95994.97;;;-3.36;61.90
68141;BME280;54941;52.220;104.306;2023-01-29T08:35:04;95982.97;;;-2.94;59.59
68141;BME280;54941;52.220;104.306;2023-01-29T08:37:31;95994.81;;;-2.75;57.70
68141;BME280;54941;52.220;104.306;2023-01-29T08:39:57;95983.66;;;-2.82;57.85
68141;BME280;54941;52.220;104.306;2023-01-29T08:42:23;95990.81;;;-2.97;59.16
68141;BME280;54941;52.220;104.306;2023-01-29T08:44:50;95980.47;;;-2.94;58.47
68141;BME280;54941;52.220;104.306;2023-01-29T08:47:18;95987.63;;;-2.99;58.86
68141;BME280;54941;52.220;104.306;2023-01-29T08:49:44;95986.84;;;-3.00;58.75
68141;BME280;54941;52.220;104.306;2023-01-29T08:52:10;95987.88;;;-3.02;59.37
68141;BME280;54941;52.220;104.306;2023-01-29T08:54:37;95979.25;;;-3.19;59.45
68141;BME280;54941;52.220;104.306;2023-01-29T08:57:03;95983.50;;;-3.10;59.91
68141;BME280;54941;52.220;104.306;2023-01-29T08:59:29;95980.69;;;-3.26;60.08
68141;BME280;54941;52.220;104.306;2023-01-29T09:01:56;95980.28;;;-3.31;60.48
68141;BME280;54941;52.220;104.306;2023-01-29T09:04:24;95977.75;;;-3.31;60.98
68141;BME280;54941;52.220;104.306;2023-01-29T09:06:50;95973.75;;;-3.43;60.60
68141;BME280;54941;52.220;104.306;2023-01-29T09:09:17;95973.72;;;-3.53;61.28
68141;BME280;54941;52.220;104.306;2023-01-29T09:11:43;95977.00;;;-3.62;61.25
68141;BME280;54941;52.220;104.306;2023-01-29T09:14:09;95958.94;;;-3.76;61.20
68141;BME280;54941;52.220;104.306;2023-01-29T09:16:36;95959.47;;;-3.73;61.43
68141;BME280;54941;52.220;104.306;2023-01-29T09:19:02;95956.91;;;-3.92;62.38
68141;BME280;54941;52.220;104.306;2023-01-29T09:21:30;95953.31;;;-3.99;62.95
68141;BME280;54941;52.220;104.306;2023-01-29T09:23:57;95952.97;;;-4.06;62.43
68141;BME280;54941;52.220;104.306;2023-01-29T09:26:23;95956.63;;;-4.19;62.64
68141;BME280;54941;52.220;104.306;2023-01-29T09:28:49;95953.94;;;-4.27;62.50
68141;BME280;54941;52.220;104.306;2023-01-29T09:31:16;95956.59;;;-4.29;62.58
68141;BME280;54941;52.220;104.306;2023-01-29T09:33:42;95952.84;;;-4.34;63.16
68141;BME280;54941;52.220;104.306;2023-01-29T09:36:08;95949.78;;;-4.38;62.74
68141;BME280;54941;52.220;104.306;2023-01-29T09:38:36;95954.38;;;-4.43;62.90
68141;BME280;54941;52.220;104.306;2023-01-29T09:41:12;95951.63;;;-4.40;62.70
68141;BME280;54941;52.220;104.306;2023-01-29T09:43:45;95948.00;;;-4.47;62.95
68141;BME280;54941;52.220;104.306;2023-01-29T09:46:18;95943.09;;;-4.49;63.63
68141;BME280;54941;52.220;104.306;2023-01-29T09:48:47;95942.38;;;-4.60;63.77
68141;BME280;54941;52.220;104.306;2023-01-29T09:51:24;95940.91;;;-4.63;64.02
68141;BME280;54941;52.220;104.306;2023-01-29T09:54:00;95944.50;;;-4.76;64.54
68141;BME280;54941;52.220;104.306;2023-01-29T09:56:31;95942.53;;;-4.73;63.44
68141;BME280;54941;52.220;104.306;2023-01-29T09:58:58;95945.28;;;-4.76;63.96
68141;BME280;54941;52.220;104.306;2023-01-29T10:01:32;95938.69;;;-4.77;63.74
68141;BME280;54941;52.220;104.306;2023-01-29T10:07:21;95939.09;;;-4.93;64.40
68141;BME280;54941;52.220;104.306;2023-01-29T10:12:59;95939.56;;;-4.99;65.01
68141;BME280;54941;52.220;104.306;2023-01-29T10:15:37;95943.56;;;-4.96;64.11
68141;BME280;54941;52.220;104.306;2023-01-29T10:18:27;95940.06;;;-5.05;65.11
68141;BME280;54941;52.220;104.306;2023-01-29T10:21:07;95930.81;;;-5.04;65.23
68141;BME280;54941;52.220;104.306;2023-01-29T10:23:45;95931.00;;;-4.96;65.15
68141;BME280;54941;52.220;104.306;2023-01-29T10:26:14;95928.59;;;-4.98;64.91
68141;BME280;54941;52.220;104.306;2023-01-29T10:28:42;95934.34;;;-4.96;64.77
68141;BME280;54941;52.220;104.306;2023-01-29T10:31:12;95934.09;;;-4.93;64.89
68141;BME280;54941;52.220;104.306;2023-01-29T10:33:46;95925.44;;;-5.00;63.96
68141;BME280;54941;52.220;104.306;2023-01-29T10:36:18;95927.81;;;-4.98;64.08
68141;BME280;54941;52.220;104.306;2023-01-29T10:38:47;95924.50;;;-4.99;63.66
68141;BME280;54941;52.220;104.306;2023-01-29T10:41:27;95921.56;;;-5.04;64.17
68141;BME280;54941;52.220;104.306;2023-01-29T10:44:05;95912.69;;;-5.08;64.08
68141;BME280;54941;52.220;104.306;2023-01-29T10:46:44;95914.63;;;-5.11;64.67
68141;BME280;54941;52.220;104.306;2023-01-29T10:49:24;95914.06;;;-5.15;64.31
68141;BME280;54941;52.220;104.306;2023-01-29T10:52:05;95918.75;;;-5.10;64.82
68141;BME280;54941;52.220;104.306;2023-01-29T10:54:44;95914.75;;;-5.13;65.05
68141;BME280;54941;52.220;104.306;2023-01-29T10:57:20;95904.94;;;-5.16;64.72
68141;BME280;54941;52.220;104.306;2023-01-29T11:00:02;95904.94;;;-5.16;64.44
68141;BME280;54941;52.220;104.306;2023-01-29T11:02:33;95905.75;;;-5.15;64.92
68141;BME280;54941;52.220;104.306;2023-01-29T11:04:59;95903.78;;;-5.12;64.91
68141;BME280;54941;52.220;104.306;2023-01-29T11:07:25;95910.53;;;-5.12;64.99
68141;BME280;54941;52.220;104.306;2023-01-29T11:09:56;95906.59;;;-5.26;65.52
68141;BME280;54941;52.220;104.306;2023-01-29T11:12:28;95905.44;;;-5.22;64.73
68141;BME280;54941;52.220;104.306;2023-01-29T11:15:00;95901.22;;;-5.21;65.27
68141;BME280;54941;52.220;104.306;2023-01-29T11:17:29;95892.44;;;-5.27;65.55
68141;BME280;54941;52.220;104.306;2023-01-29T11:19:57;95895.13;;;-5.19;65.53
68141;BME280;54941;52.220;104.306;2023-01-29T11:22:23;95895.13;;;-5.19;65.17
68141;BME280;54941;52.220;104.306;2023-01-29T11:25:09;95903.34;;;-5.17;65.78
68141;BME280;54941;52.220;104.306;2023-01-29T11:27:43;95894.63;;;-5.33;66.19
68141;BME280;54941;52.220;104.306;2023-01-29T11:30:16;95898.28;;;-5.37;66.95
68141;BME280;54941;52.220;104.306;2023-01-29T11:32:50;95905.16;;;-5.39;66.67
68141;BME280;54941;52.220;104.306;2023-01-29T11:35:22;95890.88;;;-5.39;67.10
68141;BME280;54941;52.220;104.306;2023-01-29T11:37:48;95890.56;;;-5.46;67.20
68141;BME280;54941;52.220;104.306;2023-01-29T11:40:42;95887.38;;;-5.48;67.20
68141;BME280;54941;52.220;104.306;2023-01-29T11:43:19;95881.69;;;-5.61;67.31
68141;BME280;54941;52.220;104.306;2023-01-29T11:45:48;95885.25;;;-5.63;67.30
68141;BME280;54941;52.220;104.306;2023-01-29T11:48:17;95877.97;;;-5.66;68.36
68141;BME280;54941;52.220;104.306;2023-01-29T11:50:50;95881.25;;;-5.66;67.89
68141;BME280;54941;52.220;104.306;2023-01-29T11:53:22;95890.59;;;-5.68;67.92
68141;BME280;54941;52.220;104.306;2023-01-29T11:55:49;95882.88;;;-5.76;68.10
68141;BME280;54941;52.220;104.306;2023-01-29T11:58:20;95883.88;;;-5.67;67.13
68141;BME280;54941;52.220;104.306;2023-01-29T12:00:51;95877.63;;;-5.73;67.48
68141;BME280;54941;52.220;104.306;2023-01-29T12:03:21;95876.84;;;-5.73;67.95
68141;BME280;54941;52.220;104.306;2023-01-29T12:05:54;95876.47;;;-5.80;67.77
68141;BME280;54941;52.220;104.306;2023-01-29T12:08:23;95881.91;;;-5.96;68.28
68141;BME280;54941;52.220;104.306;2023-01-29T12:10:50;95881.13;;;-5.96;68.91
68141;BME280;54941;52.220;104.306;2023-01-29T12:13:24;95889.44;;;-5.96;69.05
68141;BME280;54941;52.220;104.306;2023-01-29T12:16:10;95884.28;;;-5.94;68.89
68141;BME280;54941;52.220;104.306;2023-01-29T12:18:40;95877.47;;;-6.03;68.96
68141;BME280;54941;52.220;104.306;2023-01-29T12:21:13;95881.13;;;-6.07;69.49
68141;BME280;54941;52.220;104.306;2023-01-29T12:23:46;95882.84;;;-6.19;70.28
68141;BME280;54941;52.220;104.306;2023-01-29T12:26:18;95868.94;;;-6.23;70.62
68141;BME280;54941;52.220;104.306;2023-01-29T12:28:56;95871.66;;;-6.04;70.73
68141;BME280;54941;52.220;104.306;2023-01-29T12:31:32;95874.97;;;-6.03;70.49
68141;BME280;54941;52.220;104.306;2023-01-29T12:34:09;95872.47;;;-6.25;71.58
68141;BME280;54941;52.220;104.306;2023-01-29T12:36:44;95871.22;;;-6.09;71.07
68141;BME280;54941;52.220;104.306;2023-01-29T12:39:15;95858.31;;;-6.04;71.16
68141;BME280;54941;52.220;104.306;2023-01-29T12:41:45;95866.31;;;-5.99;71.12
68141;BME280;54941;52.220;104.306;2023-01-29T12:44:17;95862.44;;;-6.03;70.50
68141;BME280;54941;52.220;104.306;2023-01-29T12:46:48;95869.63;;;-6.10;70.89
68141;BME280;54941;52.220;104.306;2023-01-29T12:49:18;95865.19;;;-6.06;71.14
68141;BME280;54941;52.220;104.306;2023-01-29T12:51:52;95864.50;;;-6.19;71.22
68141;BME280;54941;52.220;104.306;2023-01-29T12:54:24;95862.13;;;-6.21;71.30
68141;BME280;54941;52.220;104.306;2023-01-29T12:56:56;95856.06;;;-6.18;71.40